sensor_id;sensor_type;location;lat;lon;timestamp;P1;durP1;ratioP1;P2;durP2;ratioP2
19189;SDS011;9727;50.200;19.038;2023-05-10T00:00:31;9.60;;;5.60;;
19189;SDS011;9727;50.200;19.038;2023-05-10T00:02:59;10.57;;;5.87;;
19189;SDS011;9727;50.200;19.038;2023-05-10T00:05:26;14.00;;;6.60;;
19189;SDS011;9727;50.200;19.038;2023-05-10T00:07:52;9.57;;;5.63;;
19189;SDS011;9727;50.200;19.038;2023-05-10T00:10:19;9.27;;;5.80;;
19189;SDS011;9727;50.200;19.038;2023-05-10T00:12:45;13.00;;;6.47;;
19189;SDS011;9727;50.200;19.038;2023-05-10T00:15:12;11.90;;;6.20;;
19189;SDS011;9727;50.200;19.038;2023-05-10T00:17:38;8.93;;;5.53;;
19189;SDS011;9727;50.200;19.038;2023-05-10T00:20:07;12.27;;;5.93;;
19189;SDS011;9727;50.200;19.038;2023-05-10T00:22:34;11.30;;;5.67;;
19189;SDS011;9727;50.200;19.038;2023-05-10T00:25:00;12.03;;;6.37;;
19189;SDS011;9727;50.200;19.038;2023-05-10T00:27:27;11.10;;;6.23;;
19189;SDS011;9727;50.200;19.038;2023-05-10T00:29:56;11.70;;;5.80;;
19189;SDS011;9727;50.200;19.038;2023-05-10T00:32:23;11.70;;;6.23;;
19189;SDS011;9727;50.200;19.038;2023-05-10T00:34:49;9.63;;;5.90;;
19189;SDS011;9727;50.200;19.038;2023-05-10T00:37:26;8.77;;;5.80;;
19189;SDS011;9727;50.200;19.038;2023-05-10T00:39:53;12.33;;;5.77;;
19189;SDS011;9727;50.200;19.038;2023-05-10T00:42:19;10.37;;;5.67;;
19189;SDS011;9727;50.200;19.038;2023-05-10T00:44:46;11.53;;;5.77;;
19189;SDS011;9727;50.200;19.038;2023-05-10T00:47:12;13.07;;;6.00;;
19189;SDS011;9727;50.200;19.038;2023-05-10T00:49:39;9.43;;;5.70;;
19189;SDS011;9727;50.200;19.038;2023-05-10T00:52:06;11.90;;;6.13;;
19189;SDS011;9727;50.200;19.038;2023-05-10T00:54:34;8.93;;;5.83;;
19189;SDS011;9727;50.200;19.038;2023-05-10T00:57:01;9.93;;;6.10;;
19189;SDS011;9727;50.200;19.038;2023-05-10T00:59:31;12.97;;;6.10;;
19189;SDS011;9727;50.200;19.038;2023-05-10T01:01:57;11.17;;;6.03;;
19189;SDS011;9727;50.200;19.038;2023-05-10T01:04:24;10.67;;;5.47;;
19189;SDS011;9727;50.200;19.038;2023-05-10T01:06:51;9.23;;;5.80;;
19189;SDS011;9727;50.200;19.038;2023-05-10T01:09:20;9.97;;;5.80;;
19189;SDS011;9727;50.200;19.038;2023-05-10T01:11:50;12.37;;;5.77;;
19189;SDS011;9727;50.200;19.038;2023-05-10T01:14:17;9.83;;;5.70;;
19189;SDS011;9727;50.200;19.038;2023-05-10T01:16:44;9.90;;;5.57;;
19189;SDS011;9727;50.200;19.038;2023-05-10T01:19:12;10.70;;;5.73;;
19189;SDS011;9727;50.200;19.038;2023-05-10T01:21:44;9.33;;;6.03;;
19189;SDS011;9727;50.200;19.038;2023-05-10T01:24:23;12.60;;;6.03;;
19189;SDS011;9727;50.200;19.038;2023-05-10T01:27:04;9.40;;;5.87;;
19189;SDS011;9727;50.200;19.038;2023-05-10T01:32:26;10.13;;;5.83;;
19189;SDS011;9727;50.200;19.038;2023-05-10T01:34:59;9.97;;;5.53;;
19189;SDS011;9727;50.200;19.038;2023-05-10T01:37:33;10.97;;;5.80;;
19189;SDS011;9727;50.200;19.038;2023-05-10T01:40:05;10.70;;;5.87;;
19189;SDS011;9727;50.200;19.038;2023-05-10T01:42:36;9.97;;;5.77;;
19189;SDS011;9727;50.200;19.038;2023-05-10T01:45:19;10.57;;;5.90;;
19189;SDS011;9727;50.200;19.038;2023-05-10T01:47:50;9.10;;;5.90;;
19189;SDS011;9727;50.200;19.038;2023-05-10T01:50:22;9.87;;;6.03;;
19189;SDS011;9727;50.200;19.038;2023-05-10T01:52:53;9.73;;;5.60;;
19189;SDS011;9727;50.200;19.038;2023-05-10T01:55:21;10.87;;;5.93;;
19189;SDS011;9727;50.200;19.038;2023-05-10T01:57:51;11.13;;;6.17;;
19189;SDS011;9727;50.200;19.038;2023-05-10T02:00:19;10.93;;;6.17;;
19189;SDS011;9727;50.200;19.038;2023-05-10T02:02:47;11.43;;;5.77;;
19189;SDS011;9727;50.200;19.038;2023-05-10T02:05:16;8.40;;;5.80;;
19189;SDS011;9727;50.200;19.038;2023-05-10T02:07:43;11.73;;;6.33;;
19189;SDS011;9727;50.200;19.038;2023-05-10T02:10:10;10.80;;;5.90;;
19189;SDS011;9727;50.200;19.038;2023-05-10T02:12:39;9.80;;;5.90;;
19189;SDS011;9727;50.200;19.038;2023-05-10T02:15:07;11.03;;;5.93;;
19189;SDS011;9727;50.200;19.038;2023-05-10T02:17:34;9.23;;;6.00;;
19189;SDS011;9727;50.200;19.038;2023-05-10T02:20:01;11.83;;;5.87;;
19189;SDS011;9727;50.200;19.038;2023-05-10T02:22:31;11.33;;;5.80;;
19189;SDS011;9727;50.200;19.038;2023-05-10T02:24:59;10.87;;;5.80;;
19189;SDS011;9727;50.200;19.038;2023-05-10T02:27:26;9.53;;;5.57;;
19189;SDS011;9727;50.200;19.038;2023-05-10T02:29:55;9.23;;;5.67;;
19189;SDS011;9727;50.200;19.038;2023-05-10T02:32:22;10.17;;;5.27;;
19189;SDS011;9727;50.200;19.038;2023-05-10T02:34:51;9.53;;;5.50;;
19189;SDS011;9727;50.200;19.038;2023-05-10T02:37:18;13.30;;;5.73;;
19189;SDS011;9727;50.200;19.038;2023-05-10T02:39:53;10.20;;;5.47;;
19189;SDS011;9727;50.200;19.038;2023-05-10T02:42:22;9.50;;;5.30;;
19189;SDS011;9727;50.200;19.038;2023-05-10T02:44:50;9.80;;;5.43;;
19189;SDS011;9727;50.200;19.038;2023-05-10T02:47:17;10.23;;;5.57;;
19189;SDS011;9727;50.200;19.038;2023-05-10T02:49:44;11.10;;;5.00;;
19189;SDS011;9727;50.200;19.038;2023-05-10T02:52:10;8.73;;;5.23;;
19189;SDS011;9727;50.200;19.038;2023-05-10T02:54:43;10.73;;;5.40;;
19189;SDS011;9727;50.200;19.038;2023-05-10T02:57:14;11.37;;;5.60;;
19189;SDS011;9727;50.200;19.038;2023-05-10T02:59:43;10.83;;;5.60;;
19189;SDS011;9727;50.200;19.038;2023-05-10T03:02:10;8.40;;;4.90;;
19189;SDS011;9727;50.200;19.038;2023-05-10T03:04:37;9.23;;;5.57;;
19189;SDS011;9727;50.200;19.038;2023-05-10T03:07:04;9.87;;;5.77;;
19189;SDS011;9727;50.200;19.038;2023-05-10T03:09:31;8.33;;;5.10;;
19189;SDS011;9727;50.200;19.038;2023-05-10T03:12:00;9.40;;;5.50;;
19189;SDS011;9727;50.200;19.038;2023-05-10T03:14:38;9.27;;;5.60;;
19189;SDS011;9727;50.200;19.038;2023-05-10T03:17:10;12.70;;;5.50;;
19189;SDS011;9727;50.200;19.038;2023-05-10T03:19:39;9.60;;;5.20;;
19189;SDS011;9727;50.200;19.038;2023-05-10T03:22:10;8.83;;;5.10;;
19189;SDS011;9727;50.200;19.038;2023-05-10T03:24:36;9.57;;;5.53;;
19189;SDS011;9727;50.200;19.038;2023-05-10T03:27:05;8.53;;;5.17;;
19189;SDS011;9727;50.200;19.038;2023-05-10T03:29:32;9.70;;;4.87;;
19189;SDS011;9727;50.200;19.038;2023-05-10T03:32:00;7.27;;;4.90;;
19189;SDS011;9727;50.200;19.038;2023-05-10T03:34:27;7.73;;;5.33;;
19189;SDS011;9727;50.200;19.038;2023-05-10T03:36:57;8.37;;;5.17;;
19189;SDS011;9727;50.200;19.038;2023-05-10T03:39:24;7.73;;;5.10;;
19189;SDS011;9727;50.200;19.038;2023-05-10T03:41:50;10.77;;;5.30;;
19189;SDS011;9727;50.200;19.038;2023-05-10T03:44:17;9.77;;;5.10;;
19189;SDS011;9727;50.200;19.038;2023-05-10T03:46:43;8.17;;;5.30;;
19189;SDS011;9727;50.200;19.038;2023-05-10T03:49:12;12.63;;;5.73;;
19189;SDS011;9727;50.200;19.038;2023-05-10T03:51:38;11.33;;;5.60;;
19189;SDS011;9727;50.200;19.038;2023-05-10T03:54:05;10.97;;;4.90;;
19189;SDS011;9727;50.200;19.038;2023-05-10T03:56:33;12.53;;;5.10;;
19189;SDS011;9727;50.200;19.038;2023-05-10T03:59:01;8.17;;;5.17;;
19189;SDS011;9727;50.200;19.038;2023-05-10T04:01:32;10.47;;;5.30;;
19189;SDS011;9727;50.200;19.038;2023-05-10T04:03:58;9.07;;;5.40;;
19189;SDS011;9727;50.200;19.038;2023-05-10T04:06:27;7.93;;;5.00;;
19189;SDS011;9727;50.200;19.038;2023-05-10T04:08:56;7.97;;;5.20;;
19189;SDS011;9727;50.200;19.038;2023-05-10T04:11:25;8.90;;;4.87;;
19189;SDS011;9727;50.200;19.038;2023-05-10T04:13:51;8.27;;;5.33;;
19189;SDS011;9727;50.200;19.038;2023-05-10T04:16:18;8.93;;;5.07;;
19189;SDS011;9727;50.200;19.038;2023-05-10T04:18:44;9.37;;;4.83;;
19189;SDS011;9727;50.200;19.038;2023-05-10T04:21:11;10.00;;;5.17;;
19189;SDS011;9727;50.200;19.038;2023-05-10T04:23:40;9.53;;;6.00;;
19189;SDS011;9727;50.200;19.038;2023-05-10T04:26:07;9.20;;;5.30;;
19189;SDS011;9727;50.200;19.038;2023-05-10T04:28:33;14.90;;;5.20;;
19189;SDS011;9727;50.200;19.038;2023-05-10T04:31:01;8.63;;;5.10;;
19189;SDS011;9727;50.200;19.038;2023-05-10T04:33:27;10.50;;;5.70;;
19189;SDS011;9727;50.200;19.038;2023-05-10T04:35:57;9.10;;;5.53;;
19189;SDS011;9727;50.200;19.038;2023-05-10T04:38:23;8.37;;;4.97;;
19189;SDS011;9727;50.200;19.038;2023-05-10T04:40:51;10.07;;;5.70;;
19189;SDS011;9727;50.200;19.038;2023-05-10T04:43:18;10.07;;;5.30;;
19189;SDS011;9727;50.200;19.038;2023-05-10T04:45:45;11.17;;;4.90;;
19189;SDS011;9727;50.200;19.038;2023-05-10T04:48:11;10.70;;;5.70;;
19189;SDS011;9727;50.200;19.038;2023-05-10T04:50:38;7.77;;;5.30;;
19189;SDS011;9727;50.200;19.038;2023-05-10T04:53:05;8.47;;;5.00;;
19189;SDS011;9727;50.200;19.038;2023-05-10T04:55:32;8.27;;;5.00;;
19189;SDS011;9727;50.200;19.038;2023-05-10T04:57:59;7.63;;;4.80;;
19189;SDS011;9727;50.200;19.038;2023-05-10T05:00:26;9.40;;;4.97;;
19189;SDS011;9727;50.200;19.038;2023-05-10T05:02:53;9.17;;;4.80;;
19189;SDS011;9727;50.200;19.038;2023-05-10T05:05:19;9.87;;;4.77;;
19189;SDS011;9727;50.200;19.038;2023-05-10T05:07:46;10.10;;;5.20;;
19189;SDS011;9727;50.200;19.038;2023-05-10T05:10:12;8.60;;;4.93;;
19189;SDS011;9727;50.200;19.038;2023-05-10T05:12:39;9.73;;;5.47;;
19189;SDS011;9727;50.200;19.038;2023-05-10T05:15:07;7.53;;;5.00;;
19189;SDS011;9727;50.200;19.038;2023-05-10T05:17:34;8.73;;;5.10;;
19189;SDS011;9727;50.200;19.038;2023-05-10T05:20:01;8.43;;;4.73;;
19189;SDS011;9727;50.200;19.038;2023-05-10T05:22:33;7.53;;;4.87;;
19189;SDS011;9727;50.200;19.038;2023-05-10T05:25:00;20.93;;;5.87;;
19189;SDS011;9727;50.200;19.038;2023-05-10T05:27:27;7.70;;;4.90;;
19189;SDS011;9727;50.200;19.038;2023-05-10T05:29:55;8.80;;;4.93;;
19189;SDS011;9727;50.200;19.038;2023-05-10T05:32:23;8.43;;;5.03;;
19189;SDS011;9727;50.200;19.038;2023-05-10T05:34:50;6.37;;;4.60;;
19189;SDS011;9727;50.200;19.038;2023-05-10T05:37:17;10.23;;;5.37;;
19189;SDS011;9727;50.200;19.038;2023-05-10T05:39:44;7.63;;;4.17;;
19189;SDS011;9727;50.200;19.038;2023-05-10T05:42:12;7.63;;;4.53;;
19189;SDS011;9727;50.200;19.038;2023-05-10T05:44:38;7.57;;;4.43;;
19189;SDS011;9727;50.200;19.038;2023-05-10T05:47:05;7.10;;;4.43;;
19189;SDS011;9727;50.200;19.038;2023-05-10T05:49:33;9.13;;;4.30;;
19189;SDS011;9727;50.200;19.038;2023-05-10T05:51:59;6.93;;;4.30;;
19189;SDS011;9727;50.200;19.038;2023-05-10T05:54:26;7.43;;;4.37;;
19189;SDS011;9727;50.200;19.038;2023-05-10T05:56:54;8.03;;;4.10;;
19189;SDS011;9727;50.200;19.038;2023-05-10T05:59:20;5.83;;;4.00;;
19189;SDS011;9727;50.200;19.038;2023-05-10T06:01:47;10.57;;;4.43;;
19189;SDS011;9727;50.200;19.038;2023-05-10T06:04:14;9.97;;;4.20;;
19189;SDS011;9727;50.200;19.038;2023-05-10T06:06:42;6.77;;;3.80;;
19189;SDS011;9727;50.200;19.038;2023-05-10T06:09:08;7.63;;;4.47;;
19189;SDS011;9727;50.200;19.038;2023-05-10T06:11:35;6.93;;;4.10;;
19189;SDS011;9727;50.200;19.038;2023-05-10T06:14:02;5.37;;;3.60;;
19189;SDS011;9727;50.200;19.038;2023-05-10T06:16:30;5.50;;;3.30;;
19189;SDS011;9727;50.200;19.038;2023-05-10T06:18:57;4.83;;;3.13;;
19189;SDS011;9727;50.200;19.038;2023-05-10T06:21:23;5.27;;;3.30;;
19189;SDS011;9727;50.200;19.038;2023-05-10T06:23:51;4.70;;;3.43;;
19189;SDS011;9727;50.200;19.038;2023-05-10T06:26:18;6.43;;;3.87;;
19189;SDS011;9727;50.200;19.038;2023-05-10T06:28:46;6.93;;;3.90;;
19189;SDS011;9727;50.200;19.038;2023-05-10T06:31:12;5.17;;;3.70;;
19189;SDS011;9727;50.200;19.038;2023-05-10T06:33:39;7.57;;;3.77;;
19189;SDS011;9727;50.200;19.038;2023-05-10T06:36:05;8.77;;;3.43;;
19189;SDS011;9727;50.200;19.038;2023-05-10T06:38:32;4.77;;;3.27;;
19189;SDS011;9727;50.200;19.038;2023-05-10T06:41:00;7.57;;;4.23;;
19189;SDS011;9727;50.200;19.038;2023-05-10T06:43:26;4.70;;;3.27;;
19189;SDS011;9727;50.200;19.038;2023-05-10T06:45:54;5.87;;;3.40;;
19189;SDS011;9727;50.200;19.038;2023-05-10T06:48:21;5.23;;;3.30;;
19189;SDS011;9727;50.200;19.038;2023-05-10T06:50:47;5.57;;;3.50;;
19189;SDS011;9727;50.200;19.038;2023-05-10T06:53:14;6.77;;;3.07;;
19189;SDS011;9727;50.200;19.038;2023-05-10T06:55:40;4.27;;;3.20;;
19189;SDS011;9727;50.200;19.038;2023-05-10T06:58:08;8.13;;;3.37;;
19189;SDS011;9727;50.200;19.038;2023-05-10T07:00:35;5.97;;;3.40;;
19189;SDS011;9727;50.200;19.038;2023-05-10T07:03:04;7.33;;;3.90;;
19189;SDS011;9727;50.200;19.038;2023-05-10T07:05:31;6.67;;;3.67;;
19189;SDS011;9727;50.200;19.038;2023-05-10T07:08:01;5.20;;;3.20;;
19189;SDS011;9727;50.200;19.038;2023-05-10T07:10:27;6.27;;;3.20;;
19189;SDS011;9727;50.200;19.038;2023-05-10T07:12:58;17.87;;;4.23;;
19189;SDS011;9727;50.200;19.038;2023-05-10T07:15:27;8.63;;;3.10;;
19189;SDS011;9727;50.200;19.038;2023-05-10T07:17:54;5.10;;;3.10;;
19189;SDS011;9727;50.200;19.038;2023-05-10T07:20:20;6.63;;;3.30;;
19189;SDS011;9727;50.200;19.038;2023-05-10T07:22:47;4.83;;;2.97;;
19189;SDS011;9727;50.200;19.038;2023-05-10T07:25:14;6.10;;;3.27;;
19189;SDS011;9727;50.200;19.038;2023-05-10T07:27:40;4.03;;;2.73;;
19189;SDS011;9727;50.200;19.038;2023-05-10T07:30:07;6.07;;;3.03;;
19189;SDS011;9727;50.200;19.038;2023-05-10T07:32:37;4.03;;;3.03;;
19189;SDS011;9727;50.200;19.038;2023-05-10T07:35:04;4.27;;;3.00;;
19189;SDS011;9727;50.200;19.038;2023-05-10T07:37:31;4.67;;;2.73;;
19189;SDS011;9727;50.200;19.038;2023-05-10T07:39:58;5.40;;;2.50;;
19189;SDS011;9727;50.200;19.038;2023-05-10T07:42:24;6.07;;;2.83;;
19189;SDS011;9727;50.200;19.038;2023-05-10T07:44:51;5.80;;;2.83;;
19189;SDS011;9727;50.200;19.038;2023-05-10T07:47:18;4.87;;;2.87;;
19189;SDS011;9727;50.200;19.038;2023-05-10T07:49:46;5.43;;;3.10;;
19189;SDS011;9727;50.200;19.038;2023-05-10T07:52:12;6.83;;;3.30;;
19189;SDS011;9727;50.200;19.038;2023-05-10T07:54:39;3.27;;;2.60;;
19189;SDS011;9727;50.200;19.038;2023-05-10T07:57:06;5.67;;;3.20;;
19189;SDS011;9727;50.200;19.038;2023-05-10T07:59:32;4.50;;;3.00;;
19189;SDS011;9727;50.200;19.038;2023-05-10T08:01:59;3.90;;;2.37;;
19189;SDS011;9727;50.200;19.038;2023-05-10T08:04:26;4.23;;;2.27;;
19189;SDS011;9727;50.200;19.038;2023-05-10T08:06:55;4.67;;;2.40;;
19189;SDS011;9727;50.200;19.038;2023-05-10T08:09:32;4.50;;;2.47;;
19189;SDS011;9727;50.200;19.038;2023-05-10T08:11:58;3.20;;;2.27;;
19189;SDS011;9727;50.200;19.038;2023-05-10T08:14:25;3.37;;;2.40;;
19189;SDS011;9727;50.200;19.038;2023-05-10T08:16:52;3.37;;;2.47;;
19189;SDS011;9727;50.200;19.038;2023-05-10T08:19:18;4.83;;;2.70;;
19189;SDS011;9727;50.200;19.038;2023-05-10T08:21:46;4.83;;;2.20;;
19189;SDS011;9727;50.200;19.038;2023-05-10T08:24:14;4.67;;;2.37;;
19189;SDS011;9727;50.200;19.038;2023-05-10T08:26:41;4.97;;;3.03;;
19189;SDS011;9727;50.200;19.038;2023-05-10T08:29:07;5.63;;;2.40;;
19189;SDS011;9727;50.200;19.038;2023-05-10T08:31:34;5.43;;;2.90;;
19189;SDS011;9727;50.200;19.038;2023-05-10T08:34:02;5.70;;;2.53;;
19189;SDS011;9727;50.200;19.038;2023-05-10T08:36:32;5.23;;;2.47;;
19189;SDS011;9727;50.200;19.038;2023-05-10T08:38:58;3.57;;;2.10;;
19189;SDS011;9727;50.200;19.038;2023-05-10T08:41:27;4.17;;;1.90;;
19189;SDS011;9727;50.200;19.038;2023-05-10T08:44:02;5.80;;;2.33;;
19189;SDS011;9727;50.200;19.038;2023-05-10T08:46:31;4.40;;;2.47;;
19189;SDS011;9727;50.200;19.038;2023-05-10T08:49:00;4.63;;;2.70;;
19189;SDS011;9727;50.200;19.038;2023-05-10T08:51:31;5.83;;;2.20;;
19189;SDS011;9727;50.200;19.038;2023-05-10T08:54:03;3.13;;;2.43;;
19189;SDS011;9727;50.200;19.038;2023-05-10T08:56:32;3.73;;;2.00;;
19189;SDS011;9727;50.200;19.038;2023-05-10T08:59:12;3.90;;;2.07;;
19189;SDS011;9727;50.200;19.038;2023-05-10T09:01:39;2.13;;;1.83;;
19189;SDS011;9727;50.200;19.038;2023-05-10T09:04:06;3.90;;;2.20;;
19189;SDS011;9727;50.200;19.038;2023-05-10T09:06:33;4.67;;;2.37;;
19189;SDS011;9727;50.200;19.038;2023-05-10T09:09:00;3.77;;;2.20;;
19189;SDS011;9727;50.200;19.038;2023-05-10T09:11:28;3.23;;;2.20;;
19189;SDS011;9727;50.200;19.038;2023-05-10T09:14:10;2.20;;;1.80;;
19189;SDS011;9727;50.200;19.038;2023-05-10T09:16:39;2.20;;;1.87;;
19189;SDS011;9727;50.200;19.038;2023-05-10T09:19:05;3.20;;;1.80;;
19189;SDS011;9727;50.200;19.038;2023-05-10T09:21:34;3.03;;;1.97;;
19189;SDS011;9727;50.200;19.038;2023-05-10T09:24:02;7.30;;;2.50;;
19189;SDS011;9727;50.200;19.038;2023-05-10T09:26:32;3.03;;;2.40;;
19189;SDS011;9727;50.200;19.038;2023-05-10T09:29:00;5.73;;;2.40;;
19189;SDS011;9727;50.200;19.038;2023-05-10T09:31:45;3.23;;;2.10;;
19189;SDS011;9727;50.200;19.038;2023-05-10T09:34:15;2.37;;;1.90;;
19189;SDS011;9727;50.200;19.038;2023-05-10T09:36:52;3.53;;;2.27;;
19189;SDS011;9727;50.200;19.038;2023-05-10T09:39:19;11.67;;;2.80;;
19189;SDS011;9727;50.200;19.038;2023-05-10T09:42:01;4.30;;;2.40;;
19189;SDS011;9727;50.200;19.038;2023-05-10T09:44:31;4.27;;;2.20;;
19189;SDS011;9727;50.200;19.038;2023-05-10T09:46:59;2.77;;;1.87;;
19189;SDS011;9727;50.200;19.038;2023-05-10T09:49:30;3.47;;;2.70;;
19189;SDS011;9727;50.200;19.038;2023-05-10T09:52:02;5.60;;;2.37;;
19189;SDS011;9727;50.200;19.038;2023-05-10T09:54:29;2.80;;;2.00;;
19189;SDS011;9727;50.200;19.038;2023-05-10T09:56:57;3.53;;;2.07;;
19189;SDS011;9727;50.200;19.038;2023-05-10T09:59:24;6.00;;;2.00;;
19189;SDS011;9727;50.200;19.038;2023-05-10T10:01:51;3.10;;;2.13;;
19189;SDS011;9727;50.200;19.038;2023-05-10T10:04:19;2.47;;;1.90;;
19189;SDS011;9727;50.200;19.038;2023-05-10T10:06:46;6.37;;;2.87;;
19189;SDS011;9727;50.200;19.038;2023-05-10T10:09:13;26.53;;;8.40;;
19189;SDS011;9727;50.200;19.038;2023-05-10T10:11:40;7.30;;;3.17;;
19189;SDS011;9727;50.200;19.038;2023-05-10T10:14:06;3.43;;;2.10;;
19189;SDS011;9727;50.200;19.038;2023-05-10T10:16:33;6.23;;;2.43;;
19189;SDS011;9727;50.200;19.038;2023-05-10T10:19:00;2.97;;;2.37;;
19189;SDS011;9727;50.200;19.038;2023-05-10T10:21:30;6.17;;;2.83;;
19189;SDS011;9727;50.200;19.038;2023-05-10T10:23:57;7.87;;;2.57;;
19189;SDS011;9727;50.200;19.038;2023-05-10T10:26:24;2.17;;;1.57;;
19189;SDS011;9727;50.200;19.038;2023-05-10T10:28:51;7.60;;;2.80;;
19189;SDS011;9727;50.200;19.038;2023-05-10T10:31:25;10.47;;;3.43;;
19189;SDS011;9727;50.200;19.038;2023-05-10T10:33:56;11.97;;;4.00;;
19189;SDS011;9727;50.200;19.038;2023-05-10T10:36:25;3.10;;;2.30;;
19189;SDS011;9727;50.200;19.038;2023-05-10T10:38:58;3.35;;;2.00;;
19189;SDS011;9727;50.200;19.038;2023-05-10T10:41:32;2.67;;;2.15;;
19189;SDS011;9727;50.200;19.038;2023-05-10T10:49:48;3.78;;;2.45;;
19189;SDS011;9727;50.200;19.038;2023-05-10T10:52:20;2.17;;;1.98;;
19189;SDS011;9727;50.200;19.038;2023-05-10T10:54:52;3.30;;;2.25;;
19189;SDS011;9727;50.200;19.038;2023-05-10T10:57:19;2.00;;;1.80;;
19189;SDS011;9727;50.200;19.038;2023-05-10T10:59:47;2.63;;;1.83;;
19189;SDS011;9727;50.200;19.038;2023-05-10T11:02:33;4.45;;;2.20;;
19189;SDS011;9727;50.200;19.038;2023-05-10T11:07:51;4.35;;;2.40;;
19189;SDS011;9727;50.200;19.038;2023-05-10T11:10:20;4.22;;;2.40;;
19189;SDS011;9727;50.200;19.038;2023-05-10T11:13:15;7.10;;;2.95;;
19189;SDS011;9727;50.200;19.038;2023-05-10T11:15:47;7.32;;;3.45;;
19189;SDS011;9727;50.200;19.038;2023-05-10T11:18:18;4.95;;;2.50;;
19189;SDS011;9727;50.200;19.038;2023-05-10T11:20:46;6.47;;;2.80;;
19189;SDS011;9727;50.200;19.038;2023-05-10T11:23:16;4.43;;;3.08;;
19189;SDS011;9727;50.200;19.038;2023-05-10T11:28:48;3.70;;;1.90;;
19189;SDS011;9727;50.200;19.038;2023-05-10T11:34:24;2.92;;;2.17;;
19189;SDS011;9727;50.200;19.038;2023-05-10T11:36:52;3.35;;;2.50;;
19189;SDS011;9727;50.200;19.038;2023-05-10T11:39:19;2.95;;;2.60;;
19189;SDS011;9727;50.200;19.038;2023-05-10T11:41:48;2.53;;;2.03;;
19189;SDS011;9727;50.200;19.038;2023-05-10T11:44:16;3.00;;;2.53;;
19189;SDS011;9727;50.200;19.038;2023-05-10T11:46:43;5.55;;;3.08;;
19189;SDS011;9727;50.200;19.038;2023-05-10T11:49:09;3.95;;;2.38;;
19189;SDS011;9727;50.200;19.038;2023-05-10T11:51:36;4.72;;;2.20;;
19189;SDS011;9727;50.200;19.038;2023-05-10T11:54:05;4.78;;;2.55;;
19189;SDS011;9727;50.200;19.038;2023-05-10T11:56:32;4.82;;;2.40;;
19189;SDS011;9727;50.200;19.038;2023-05-10T11:58:59;3.17;;;2.13;;
19189;SDS011;9727;50.200;19.038;2023-05-10T12:01:36;3.15;;;2.08;;
19189;SDS011;9727;50.200;19.038;2023-05-10T12:04:02;3.67;;;2.78;;
19189;SDS011;9727;50.200;19.038;2023-05-10T12:06:37;3.30;;;2.25;;
19189;SDS011;9727;50.200;19.038;2023-05-10T12:09:06;3.30;;;2.28;;
19189;SDS011;9727;50.200;19.038;2023-05-10T12:11:33;3.60;;;2.38;;
19189;SDS011;9727;50.200;19.038;2023-05-10T12:14:04;4.35;;;2.45;;
19189;SDS011;9727;50.200;19.038;2023-05-10T12:16:32;5.70;;;2.70;;
19189;SDS011;9727;50.200;19.038;2023-05-10T12:18:59;6.05;;;2.35;;
19189;SDS011;9727;50.200;19.038;2023-05-10T12:21:27;2.85;;;1.90;;
19189;SDS011;9727;50.200;19.038;2023-05-10T12:23:59;2.97;;;2.00;;
19189;SDS011;9727;50.200;19.038;2023-05-10T12:26:31;3.42;;;2.28;;
19189;SDS011;9727;50.200;19.038;2023-05-10T12:29:11;3.38;;;2.22;;
19189;SDS011;9727;50.200;19.038;2023-05-10T12:31:49;3.55;;;2.30;;
19189;SDS011;9727;50.200;19.038;2023-05-10T12:34:31;2.70;;;2.17;;
19189;SDS011;9727;50.200;19.038;2023-05-10T12:37:04;3.92;;;2.20;;
19189;SDS011;9727;50.200;19.038;2023-05-10T12:39:50;3.22;;;2.03;;
19189;SDS011;9727;50.200;19.038;2023-05-10T12:42:17;2.63;;;2.03;;
19189;SDS011;9727;50.200;19.038;2023-05-10T12:44:43;2.83;;;1.95;;
19189;SDS011;9727;50.200;19.038;2023-05-10T12:47:11;2.38;;;1.98;;
19189;SDS011;9727;50.200;19.038;2023-05-10T12:49:38;4.97;;;2.20;;
19189;SDS011;9727;50.200;19.038;2023-05-10T12:52:04;2.45;;;1.95;;
19189;SDS011;9727;50.200;19.038;2023-05-10T12:54:31;6.25;;;2.58;;
19189;SDS011;9727;50.200;19.038;2023-05-10T12:56:58;2.20;;;1.90;;
19189;SDS011;9727;50.200;19.038;2023-05-10T12:59:24;3.45;;;1.98;;
19189;SDS011;9727;50.200;19.038;2023-05-10T13:01:51;2.88;;;2.05;;
19189;SDS011;9727;50.200;19.038;2023-05-10T13:04:22;2.33;;;1.80;;
19189;SDS011;9727;50.200;19.038;2023-05-10T13:06:48;2.42;;;1.80;;
19189;SDS011;9727;50.200;19.038;2023-05-10T13:09:15;3.33;;;2.50;;
19189;SDS011;9727;50.200;19.038;2023-05-10T13:11:42;3.90;;;2.28;;
19189;SDS011;9727;50.200;19.038;2023-05-10T13:14:08;5.55;;;2.42;;
19189;SDS011;9727;50.200;19.038;2023-05-10T13:16:36;4.05;;;2.65;;
19189;SDS011;9727;50.200;19.038;2023-05-10T13:19:02;4.13;;;2.55;;
19189;SDS011;9727;50.200;19.038;2023-05-10T13:21:33;4.07;;;2.63;;
19189;SDS011;9727;50.200;19.038;2023-05-10T13:24:01;2.47;;;2.13;;
19189;SDS011;9727;50.200;19.038;2023-05-10T13:26:27;2.78;;;2.13;;
19189;SDS011;9727;50.200;19.038;2023-05-10T13:28:59;2.70;;;2.05;;
19189;SDS011;9727;50.200;19.038;2023-05-10T13:31:26;2.55;;;2.17;;
19189;SDS011;9727;50.200;19.038;2023-05-10T13:33:52;4.43;;;2.28;;
19189;SDS011;9727;50.200;19.038;2023-05-10T13:36:19;2.90;;;2.28;;
19189;SDS011;9727;50.200;19.038;2023-05-10T13:38:49;3.00;;;1.80;;
19189;SDS011;9727;50.200;19.038;2023-05-10T13:41:16;4.00;;;2.10;;
19189;SDS011;9727;50.200;19.038;2023-05-10T13:43:43;2.58;;;1.90;;
19189;SDS011;9727;50.200;19.038;2023-05-10T13:46:09;3.17;;;1.98;;
19189;SDS011;9727;50.200;19.038;2023-05-10T13:48:36;3.08;;;2.30;;
19189;SDS011;9727;50.200;19.038;2023-05-10T13:51:03;2.13;;;1.75;;
19189;SDS011;9727;50.200;19.038;2023-05-10T13:53:30;2.72;;;2.08;;
19189;SDS011;9727;50.200;19.038;2023-05-10T13:55:59;2.33;;;1.80;;
19189;SDS011;9727;50.200;19.038;2023-05-10T13:58:25;4.35;;;1.98;;
19189;SDS011;9727;50.200;19.038;2023-05-10T14:00:52;2.20;;;2.00;;
19189;SDS011;9727;50.200;19.038;2023-05-10T14:03:19;2.35;;;1.90;;
19189;SDS011;9727;50.200;19.038;2023-05-10T14:05:45;2.92;;;2.20;;
19189;SDS011;9727;50.200;19.038;2023-05-10T14:08:12;2.85;;;2.20;;
19189;SDS011;9727;50.200;19.038;2023-05-10T14:10:39;3.08;;;2.30;;
19189;SDS011;9727;50.200;19.038;2023-05-10T14:13:08;2.15;;;1.90;;
19189;SDS011;9727;50.200;19.038;2023-05-10T14:15:34;2.65;;;2.00;;
19189;SDS011;9727;50.200;19.038;2023-05-10T14:18:01;5.10;;;1.85;;
19189;SDS011;9727;50.200;19.038;2023-05-10T14:20:30;2.28;;;1.85;;
19189;SDS011;9727;50.200;19.038;2023-05-10T14:22:58;2.25;;;1.85;;
19189;SDS011;9727;50.200;19.038;2023-05-10T14:25:25;3.63;;;2.00;;
19189;SDS011;9727;50.200;19.038;2023-05-10T14:27:52;2.38;;;2.00;;
19189;SDS011;9727;50.200;19.038;2023-05-10T14:30:21;3.05;;;2.15;;
19189;SDS011;9727;50.200;19.038;2023-05-10T14:32:48;4.15;;;1.88;;
19189;SDS011;9727;50.200;19.038;2023-05-10T14:35:15;2.55;;;1.85;;
19189;SDS011;9727;50.200;19.038;2023-05-10T14:37:42;4.80;;;2.28;;
19189;SDS011;9727;50.200;19.038;2023-05-10T14:40:09;2.42;;;1.92;;
19189;SDS011;9727;50.200;19.038;2023-05-10T14:42:36;5.20;;;2.10;;
19189;SDS011;9727;50.200;19.038;2023-05-10T14:45:03;4.07;;;2.35;;
19189;SDS011;9727;50.200;19.038;2023-05-10T14:47:31;2.75;;;2.38;;
19189;SDS011;9727;50.200;19.038;2023-05-10T14:49:58;3.03;;;1.85;;
19189;SDS011;9727;50.200;19.038;2023-05-10T14:52:25;2.10;;;1.90;;
19189;SDS011;9727;50.200;19.038;2023-05-10T14:54:52;5.45;;;2.15;;
19189;SDS011;9727;50.200;19.038;2023-05-10T14:57:18;4.20;;;2.00;;
19189;SDS011;9727;50.200;19.038;2023-05-10T14:59:45;4.63;;;1.90;;
19189;SDS011;9727;50.200;19.038;2023-05-10T15:02:12;4.63;;;1.90;;
19189;SDS011;9727;50.200;19.038;2023-05-10T15:04:41;2.17;;;1.70;;
19189;SDS011;9727;50.200;19.038;2023-05-10T15:07:08;1.90;;;1.70;;
19189;SDS011;9727;50.200;19.038;2023-05-10T15:09:39;2.00;;;1.80;;